createdAt,value
2022-10-29T00:00:56.992Z,100.00
2022-10-29T00:03:24.347Z,100.00
2022-10-29T00:06:06.664Z,100.00
2022-10-29T00:08:35.718Z,100.00
2022-10-29T00:11:14.821Z,100.00
2022-10-29T00:13:42.735Z,100.00
2022-10-29T00:16:16.512Z,100.00
2022-10-29T00:18:43.460Z,100.00
2022-10-29T00:21:16.129Z,100.00
2022-10-29T00:23:43.020Z,100.00
2022-10-29T00:26:10.086Z,100.00
2022-10-29T00:28:37.087Z,100.00
2022-10-29T00:31:15.905Z,100.00
2022-10-29T00:33:43.228Z,100.00
2022-10-29T00:36:15.712Z,100.00
2022-10-29T00:38:44.343Z,100.00
2022-10-29T00:41:13.666Z,100.00
2022-10-29T00:43:51.762Z,100.00
2022-10-29T00:46:28.845Z,100.00
2022-10-29T00:48:56.661Z,100.00
2022-10-29T00:51:23.508Z,100.00
2022-10-29T00:53:56.027Z,100.00
2022-10-29T00:56:25.568Z,100.00
2022-10-29T00:58:52.590Z,100.00
2022-10-29T01:01:19.624Z,100.00
2022-10-29T01:03:47.250Z,100.00
2022-10-29T01:06:14.986Z,100.00
2022-10-29T01:08:41.746Z,100.00
2022-10-29T01:11:50.681Z,100.00
2022-10-29T01:14:23.183Z,100.00
2022-10-29T01:17:23.729Z,100.00
2022-10-29T01:20:12.278Z,100.00
2022-10-29T01:23:06.852Z,100.00
2022-10-29T01:25:39.430Z,100.00
2022-10-29T01:31:15.447Z,100.00
2022-10-29T01:34:15.015Z,100.00
2022-10-29T01:37:03.384Z,100.00
2022-10-29T01:40:07.687Z,100.00
2022-10-29T01:42:47.310Z,100.00
2022-10-29T01:45:27.204Z,100.00
2022-10-29T01:48:11.532Z,100.00
2022-10-29T01:50:40.614Z,100.00
2022-10-29T01:53:08.268Z,100.00
2022-10-29T01:55:35.436Z,100.00
2022-10-29T01:58:03.886Z,100.00
2022-10-29T02:00:50.904Z,100.00
2022-10-29T02:03:35.646Z,100.00
2022-10-29T02:06:28.385Z,100.00
2022-10-29T02:09:15.067Z,100.00
2022-10-29T02:11:46.367Z,100.00
2022-10-29T02:14:23.161Z,100.00
2022-10-29T02:16:50.563Z,100.00
2022-10-29T02:19:17.270Z,100.00
2022-10-29T02:21:45.152Z,100.00
2022-10-29T02:24:12.013Z,100.00
2022-10-29T02:26:38.625Z,100.00
2022-10-29T02:29:05.240Z,100.00
2022-10-29T02:31:31.902Z,100.00
2022-10-29T02:33:58.509Z,100.00
2022-10-29T02:36:25.348Z,100.00
2022-10-29T02:38:51.922Z,100.00
2022-10-29T02:41:18.580Z,100.00
2022-10-29T02:43:45.302Z,100.00
2022-10-29T02:46:21.278Z,100.00
2022-10-29T02:48:48.776Z,100.00
2022-10-29T02:51:16.589Z,100.00
2022-10-29T02:53:43.634Z,100.00
2022-10-29T02:56:10.901Z,100.00
2022-10-29T02:58:37.655Z,100.00
2022-10-29T03:01:04.866Z,100.00
2022-10-29T03:03:31.470Z,100.00
2022-10-29T03:05:58.094Z,100.00
2022-10-29T03:08:24.894Z,100.00
2022-10-29T03:10:51.626Z,100.00
2022-10-29T03:13:18.713Z,100.00
2022-10-29T03:15:46.158Z,100.00
2022-10-29T03:18:12.927Z,100.00
2022-10-29T03:20:39.662Z,100.00
2022-10-29T03:23:06.352Z,100.00
2022-10-29T03:25:33.086Z,100.00
2022-10-29T03:27:59.751Z,100.00
2022-10-29T03:30:26.400Z,100.00
2022-10-29T03:32:53.211Z,100.00
2022-10-29T03:35:20.839Z,100.00
2022-10-29T03:37:51.927Z,100.00
2022-10-29T03:40:19.816Z,100.00
2022-10-29T03:42:46.800Z,100.00
2022-10-29T03:45:14.345Z,100.00
2022-10-29T03:47:40.940Z,100.00
2022-10-29T03:50:09.389Z,100.00
2022-10-29T03:52:36.368Z,100.00
2022-10-29T03:55:03.362Z,100.00
2022-10-29T03:57:29.988Z,100.00
2022-10-29T03:59:56.657Z,100.00
2022-10-29T04:02:24.468Z,100.00
2022-10-29T04:04:51.162Z,100.00
2022-10-29T04:07:18.015Z,100.00
2022-10-29T04:09:44.656Z,100.00
2022-10-29T04:12:11.448Z,100.00
2022-10-29T04:14:42.886Z,100.00
2022-10-29T04:17:12.418Z,100.00
2022-10-29T04:19:39.256Z,100.00
2022-10-29T04:28:41.255Z,100.00
2022-10-29T04:30:25.966Z,100.00
2022-10-29T04:32:57.138Z,100.00
2022-10-29T04:35:24.690Z,100.00
2022-10-29T04:37:51.328Z,100.00
2022-10-29T04:40:18.025Z,100.00
2022-10-29T04:42:44.607Z,100.00
2022-10-29T04:45:11.287Z,100.00
2022-10-29T04:47:37.965Z,100.00
2022-10-29T04:50:05.007Z,100.00
2022-10-29T04:52:31.587Z,100.00
2022-10-29T04:54:58.262Z,100.00
2022-10-29T04:57:24.921Z,100.00
2022-10-29T04:59:51.529Z,100.00
2022-10-29T05:02:20.630Z,100.00
2022-10-29T05:04:47.226Z,100.00
2022-10-29T05:07:13.873Z,100.00
2022-10-29T05:09:40.444Z,100.00
2022-10-29T05:12:07.670Z,100.00
2022-10-29T05:14:34.396Z,100.00
2022-10-29T05:17:01.046Z,100.00
2022-10-29T05:19:27.693Z,100.00
2022-10-29T05:21:54.397Z,100.00
2022-10-29T05:24:21.124Z,100.00
2022-10-29T05:26:47.732Z,100.00
2022-10-29T05:29:14.416Z,100.00
2022-10-29T05:31:41.080Z,100.00
2022-10-29T05:34:07.775Z,100.00
2022-10-29T05:36:34.417Z,100.00
2022-10-29T05:39:01.183Z,100.00
2022-10-29T05:41:27.951Z,100.00
2022-10-29T05:43:54.533Z,100.00
2022-10-29T05:46:21.150Z,100.00
2022-10-29T05:48:47.738Z,100.00
2022-10-29T05:51:14.415Z,100.00
2022-10-29T05:53:41.142Z,100.00
2022-10-29T05:56:07.929Z,100.00
2022-10-29T05:58:34.619Z,100.00
2022-10-29T06:01:05.422Z,100.00
2022-10-29T06:03:32.001Z,100.00
2022-10-29T06:05:58.583Z,100.00
2022-10-29T06:08:25.285Z,100.00
2022-10-29T06:10:51.972Z,100.00
2022-10-29T06:13:21.278Z,100.00
2022-10-29T06:15:49.660Z,100.00
2022-10-29T06:18:16.760Z,100.00
2022-10-29T06:20:43.813Z,100.00
2022-10-29T06:23:11.524Z,100.00
2022-10-29T06:25:38.264Z,100.00
2022-10-29T06:28:15.323Z,100.00
2022-10-29T06:30:48.164Z,100.00
2022-10-29T06:33:15.482Z,100.00
2022-10-29T06:35:42.221Z,100.00
2022-10-29T06:38:12.208Z,100.00
2022-10-29T06:40:39.950Z,100.00
2022-10-29T06:43:09.485Z,100.00
2022-10-29T06:45:36.346Z,100.00
2022-10-29T06:48:05.137Z,100.00
2022-10-29T06:50:31.866Z,100.00
2022-10-29T06:53:03.266Z,100.00
2022-10-29T06:55:30.150Z,100.00
2022-10-29T06:58:01.682Z,100.00
2022-10-29T07:00:30.178Z,100.00
2022-10-29T07:02:57.876Z,100.00
2022-10-29T07:05:25.102Z,100.00
2022-10-29T07:08:00.001Z,100.00
2022-10-29T07:10:29.224Z,100.00
2022-10-29T07:12:56.179Z,100.00
2022-10-29T07:15:27.283Z,100.00
2022-10-29T07:18:07.444Z,100.00
2022-10-29T07:20:40.259Z,100.00
2022-10-29T07:23:07.447Z,100.00
2022-10-29T07:25:35.756Z,100.00
2022-10-29T07:28:12.543Z,100.00
2022-10-29T07:30:39.921Z,100.00
2022-10-29T07:33:06.765Z,100.00
2022-10-29T07:35:34.944Z,100.00
2022-10-29T07:38:07.272Z,100.00
2022-10-29T07:40:45.852Z,100.00
2022-10-29T07:43:12.447Z,100.00
2022-10-29T07:45:39.209Z,100.00
2022-10-29T07:48:08.090Z,100.00
2022-10-29T07:50:35.669Z,100.00
2022-10-29T07:53:03.577Z,100.00
2022-10-29T07:55:30.976Z,100.00
2022-10-29T07:57:59.185Z,100.00
2022-10-29T08:00:26.289Z,100.00
2022-10-29T08:02:56.890Z,100.00
2022-10-29T08:05:24.855Z,100.00
2022-10-29T08:07:54.656Z,100.00
2022-10-29T08:10:22.129Z,100.00
2022-10-29T08:12:52.822Z,100.00
2022-10-29T08:15:20.316Z,100.00
2022-10-29T08:17:47.069Z,100.00
2022-10-29T08:20:15.039Z,100.00
2022-10-29T08:25:22.568Z,100.00
2022-10-29T08:28:03.798Z,100.00
2022-10-29T08:30:31.912Z,100.00
2022-10-29T08:32:59.753Z,100.00
2022-10-29T08:35:27.278Z,100.00
2022-10-29T08:37:53.952Z,100.00
2022-10-29T08:40:48.381Z,100.00
2022-10-29T08:43:24.058Z,100.00
2022-10-29T08:45:52.793Z,100.00
2022-10-29T08:48:25.915Z,100.00
2022-10-29T08:51:19.282Z,100.00
2022-10-29T08:54:17.016Z,100.00
2022-10-29T08:56:44.099Z,100.00
2022-10-29T08:59:16.959Z,100.00
2022-10-29T09:01:44.536Z,100.00
2022-10-29T09:04:21.847Z,100.00
2022-10-29T09:07:00.568Z,100.00
2022-10-29T09:09:43.632Z,100.00
2022-10-29T09:12:37.468Z,100.00
2022-10-29T09:15:31.041Z,100.00
2022-10-29T09:18:16.610Z,100.00
2022-10-29T09:20:55.895Z,100.00
2022-10-29T09:23:55.746Z,100.00
2022-10-29T09:26:32.260Z,100.00
2022-10-29T09:29:29.825Z,100.00
2022-10-29T09:32:23.183Z,100.00
2022-10-29T09:34:53.265Z,100.00
2022-10-29T09:37:49.263Z,100.00
2022-10-29T09:40:24.836Z,100.00
2022-10-29T09:42:53.157Z,100.00
2022-10-29T09:45:26.793Z,100.00
2022-10-29T09:48:07.415Z,100.00
2022-10-29T09:50:53.553Z,100.00
2022-10-29T09:53:20.259Z,100.00
2022-10-29T09:55:53.950Z,100.00
2022-10-29T09:58:23.560Z,100.00
2022-10-29T10:00:51.703Z,100.00
2022-10-29T10:03:33.148Z,100.00
2022-10-29T10:06:10.678Z,100.00
2022-10-29T10:09:01.904Z,100.00
2022-10-29T10:11:59.100Z,100.00
2022-10-29T10:14:27.513Z,100.00
2022-10-29T10:17:01.512Z,100.00
2022-10-29T10:19:31.485Z,100.00
2022-10-29T10:22:00.815Z,100.00
2022-10-29T10:24:35.993Z,100.00
2022-10-29T10:27:30.143Z,100.00
2022-10-29T10:30:21.105Z,100.00
2022-10-29T10:32:47.717Z,100.00
2022-10-29T10:35:30.252Z,100.00
2022-10-29T10:37:59.274Z,100.00
2022-10-29T10:40:26.351Z,100.00
2022-10-29T10:42:55.078Z,100.00
2022-10-29T10:45:29.629Z,100.00
2022-10-29T10:47:59.282Z,100.00
2022-10-29T10:50:32.631Z,100.00
2022-10-29T10:53:04.340Z,100.00
2022-10-29T10:55:33.682Z,100.00
2022-10-29T10:58:03.412Z,100.00
2022-10-29T11:00:39.554Z,100.00
2022-10-29T11:03:09.240Z,100.00
2022-10-29T11:05:43.219Z,100.00
2022-10-29T11:08:19.339Z,100.00
2022-10-29T11:11:09.280Z,100.00
2022-10-29T11:13:41.931Z,100.00
2022-10-29T11:16:41.601Z,100.00
2022-10-29T11:19:16.650Z,100.00
2022-10-29T11:21:51.604Z,100.00
2022-10-29T11:24:35.378Z,100.00
2022-10-29T11:27:09.090Z,100.00
2022-10-29T11:29:49.129Z,100.00
2022-10-29T11:32:29.197Z,100.00
2022-10-29T11:35:19.933Z,100.00
2022-10-29T14:11:59.092Z,43.85
2022-10-29T14:14:48.459Z,43.53
2022-10-29T14:17:16.990Z,42.66
2022-10-29T14:19:48.934Z,42.65
2022-10-29T14:22:30.249Z,44.72
2022-10-29T14:24:58.673Z,43.77
2022-10-29T14:27:25.284Z,43.49
2022-10-29T14:29:54.638Z,43.36
2022-10-29T14:32:22.707Z,43.95
2022-10-29T14:34:51.095Z,44.05
2022-10-29T14:37:29.372Z,44.33
2022-10-29T14:39:59.693Z,45.02
2022-10-29T14:42:37.218Z,44.63
2022-10-29T14:45:36.281Z,45.35
2022-10-29T14:48:09.667Z,45.59
2022-10-29T14:50:36.687Z,45.83
2022-10-29T14:53:06.367Z,47.07
2022-10-29T14:55:40.114Z,47.24
2022-10-29T14:58:33.810Z,47.64
2022-10-29T15:01:05.954Z,48.62
2022-10-29T15:03:35.151Z,48.36
2022-10-29T15:06:17.065Z,48.77
2022-10-29T15:08:46.101Z,49.35
2022-10-29T15:11:34.960Z,50.14
2022-10-29T15:14:03.364Z,50.22
2022-10-29T15:16:30.856Z,50.39
2022-10-29T15:18:59.600Z,50.54
2022-10-29T15:21:31.056Z,50.56
2022-10-29T15:24:09.709Z,51.21
2022-10-29T15:26:45.855Z,51.72
2022-10-29T15:29:12.968Z,52.20
2022-10-29T15:31:58.325Z,52.81
2022-10-29T15:34:35.837Z,52.96
2022-10-29T15:37:21.470Z,53.93
2022-10-29T15:39:56.870Z,54.62
2022-10-29T15:42:29.047Z,54.70
2022-10-29T15:45:07.605Z,54.98
2022-10-29T15:48:08.730Z,55.39
2022-10-29T15:50:41.437Z,55.80
2022-10-29T15:53:15.966Z,57.39
2022-10-29T15:55:43.393Z,57.25
2022-10-29T15:58:16.040Z,57.95
2022-10-29T16:00:43.392Z,57.90
2022-10-29T16:03:17.310Z,58.27
2022-10-29T16:05:47.228Z,58.75
2022-10-29T16:08:22.519Z,59.05
2022-10-29T16:10:49.208Z,59.77
2022-10-29T16:13:17.778Z,59.58
2022-10-29T16:15:44.487Z,60.23
2022-10-29T16:18:11.212Z,59.87
2022-10-29T16:20:37.795Z,59.60
2022-10-29T16:23:04.599Z,59.92
2022-10-29T16:25:31.222Z,60.88
2022-10-29T16:27:58.176Z,60.32
2022-10-29T16:30:25.084Z,60.42
2022-10-29T16:32:52.611Z,60.61
2022-10-29T16:35:27.327Z,60.84
2022-10-29T16:37:55.736Z,60.79
2022-10-29T16:40:25.514Z,61.19
2022-10-29T16:42:55.043Z,61.58
2022-10-29T16:45:25.653Z,61.88
2022-10-29T16:47:52.508Z,62.35
2022-10-29T16:50:24.833Z,63.03
2022-10-29T16:52:58.478Z,62.39
2022-10-29T16:55:26.101Z,62.33
2022-10-29T16:57:53.036Z,63.19
2022-10-29T17:00:20.007Z,63.40
2022-10-29T17:02:46.639Z,63.22
2022-10-29T17:05:13.696Z,62.63
2022-10-29T17:07:40.551Z,62.71
2022-10-29T17:10:07.769Z,63.07
2022-10-29T17:12:35.137Z,62.80
2022-10-29T17:15:01.998Z,62.83
2022-10-29T17:17:31.445Z,63.28
2022-10-29T17:19:58.275Z,63.24
2022-10-29T17:22:24.838Z,63.55
2022-10-29T17:24:51.506Z,63.42
2022-10-29T17:27:18.140Z,63.97
2022-10-29T17:29:44.688Z,64.44
2022-10-29T17:32:11.261Z,64.27
2022-10-29T17:34:37.862Z,64.90
2022-10-29T17:37:04.420Z,64.56
2022-10-29T17:39:31.046Z,65.35
2022-10-29T17:41:57.641Z,65.71
2022-10-29T17:44:26.392Z,65.49
2022-10-29T17:46:53.751Z,65.48
2022-10-29T17:49:20.964Z,65.61
2022-10-29T17:51:47.631Z,66.69
2022-10-29T17:54:15.193Z,66.56
2022-10-29T17:56:41.822Z,66.88
2022-10-29T17:59:08.500Z,67.09
2022-10-29T18:01:35.429Z,67.88
2022-10-29T18:04:03.442Z,67.59
2022-10-29T18:06:30.394Z,67.68
2022-10-29T18:08:57.197Z,69.01
2022-10-29T18:11:25.488Z,69.26
2022-10-29T18:13:53.280Z,69.12
2022-10-29T18:16:22.697Z,69.60
2022-10-29T18:19:01.084Z,69.29
2022-10-29T18:21:29.531Z,70.08
2022-10-29T18:23:56.239Z,70.42
2022-10-29T18:26:31.542Z,71.08
2022-10-29T18:29:00.021Z,70.72
2022-10-29T18:31:30.489Z,71.05
2022-10-29T18:34:04.749Z,71.08
2022-10-29T18:36:31.956Z,71.58
2022-10-29T18:38:59.340Z,71.76
2022-10-29T18:41:26.329Z,71.37
2022-10-29T18:43:52.994Z,71.75
2022-10-29T18:46:20.251Z,72.10
2022-10-29T18:48:47.980Z,72.70
2022-10-29T18:51:24.404Z,72.69
2022-10-29T18:53:53.224Z,73.17
2022-10-29T18:56:21.717Z,73.37
2022-10-29T18:58:49.140Z,73.29
2022-10-29T19:01:22.690Z,73.19
2022-10-29T19:03:54.698Z,73.60
2022-10-29T19:06:22.878Z,73.69
2022-10-29T19:08:49.842Z,73.62
2022-10-29T19:11:19.562Z,73.36
2022-10-29T19:13:53.615Z,73.78
2022-10-29T19:16:21.231Z,73.81
2022-10-29T19:18:48.242Z,73.89
2022-10-29T19:21:17.309Z,74.17
2022-10-29T19:23:46.258Z,74.41
2022-10-29T19:26:15.918Z,74.25
2022-10-29T19:28:43.600Z,74.24
2022-10-29T19:31:13.240Z,74.27
2022-10-29T19:33:40.146Z,74.14
2022-10-29T19:36:08.006Z,74.22
2022-10-29T19:38:35.436Z,74.23
2022-10-29T19:41:02.104Z,74.05
2022-10-29T19:43:31.879Z,74.08
2022-10-29T19:45:58.563Z,74.24
2022-10-29T19:48:25.409Z,75.32
2022-10-29T19:50:56.541Z,75.01
2022-10-29T19:53:24.005Z,75.47
2022-10-29T19:55:51.066Z,75.00
2022-10-29T19:58:22.070Z,75.27
2022-10-29T20:00:48.839Z,74.97
2022-10-29T20:03:16.473Z,75.04
2022-10-29T20:05:44.041Z,75.16
2022-10-29T20:08:15.652Z,75.45
2022-10-29T20:10:43.022Z,75.98
2022-10-29T20:13:09.640Z,75.44
2022-10-29T20:15:39.126Z,75.96
2022-10-29T20:18:06.203Z,75.99
2022-10-29T20:20:32.793Z,75.61
2022-10-29T20:23:00.215Z,75.75
2022-10-29T20:25:27.510Z,76.22
2022-10-29T20:27:54.098Z,76.34
2022-10-29T20:30:21.171Z,76.53
2022-10-29T20:32:49.126Z,76.90
2022-10-29T20:35:16.803Z,77.06
2022-10-29T20:37:43.393Z,76.60
2022-10-29T20:40:10.753Z,77.13
2022-10-29T20:42:37.320Z,77.49
2022-10-29T20:45:04.362Z,77.82
2022-10-29T20:47:30.919Z,77.32
2022-10-29T20:49:57.474Z,77.84
2022-10-29T20:52:24.113Z,78.50
2022-10-29T20:54:50.655Z,78.17
2022-10-29T20:57:17.232Z,78.33
2022-10-29T20:59:43.804Z,78.10
2022-10-29T21:02:11.863Z,79.08
2022-10-29T21:04:39.231Z,79.03
2022-10-29T21:07:07.664Z,79.34
2022-10-29T21:09:34.467Z,79.44
2022-10-29T21:12:01.111Z,79.43
2022-10-29T21:14:29.567Z,79.37
2022-10-29T21:16:56.220Z,79.89
2022-10-29T21:19:23.036Z,80.17
2022-10-29T21:21:49.647Z,80.00
2022-10-29T21:24:17.774Z,79.97
2022-10-29T21:26:44.362Z,80.26
2022-10-29T21:29:10.908Z,80.22
2022-10-29T21:31:37.444Z,80.63
2022-10-29T21:34:04.096Z,80.72
2022-10-29T21:36:30.686Z,80.87
2022-10-29T21:38:57.318Z,81.18
2022-10-29T21:41:23.878Z,81.29
2022-10-29T21:43:50.463Z,81.17
2022-10-29T21:46:17.021Z,81.27
2022-10-29T21:48:43.624Z,81.14
2022-10-29T21:51:12.473Z,80.94
2022-10-29T21:53:39.248Z,80.93
2022-10-29T21:56:08.137Z,80.65
2022-10-29T21:58:34.842Z,80.74
2022-10-29T22:01:04.526Z,80.86
2022-10-29T22:03:32.776Z,81.16
2022-10-29T22:06:07.734Z,81.48
2022-10-29T22:08:35.003Z,81.51
2022-10-29T22:11:02.081Z,82.50
2022-10-29T22:13:29.962Z,82.39
2022-10-29T22:15:56.991Z,82.76
2022-10-29T22:18:24.612Z,83.25
2022-10-29T22:21:12.349Z,83.30
2022-10-29T22:23:58.446Z,83.03
2022-10-29T22:26:27.391Z,83.24
2022-10-29T22:28:54.370Z,83.57
2022-10-29T22:31:23.067Z,83.85
2022-10-29T22:33:49.734Z,84.42
2022-10-29T22:36:18.599Z,84.12
2022-10-29T22:38:45.666Z,84.49
2022-10-29T22:41:15.043Z,84.46
2022-10-29T22:43:42.458Z,84.64
2022-10-29T22:46:10.446Z,84.75
2022-10-29T22:48:37.266Z,84.69
2022-10-29T22:51:06.725Z,85.27
2022-10-29T22:53:33.785Z,85.38
2022-10-29T22:56:01.138Z,85.48
2022-10-29T22:58:28.358Z,85.30
2022-10-29T23:01:07.031Z,85.71
2022-10-29T23:03:34.436Z,85.75
2022-10-29T23:06:03.857Z,85.75
2022-10-29T23:08:31.397Z,86.15
2022-10-29T23:10:58.521Z,86.50
2022-10-29T23:13:25.073Z,86.20
2022-10-29T23:15:53.099Z,86.63
2022-10-29T23:18:19.956Z,86.54
2022-10-29T23:20:46.531Z,86.10
2022-10-29T23:23:14.200Z,86.32
2022-10-29T23:25:41.790Z,86.13
2022-10-29T23:28:08.905Z,86.26
2022-10-29T23:30:35.941Z,86.55
2022-10-29T23:33:02.498Z,86.35
2022-10-29T23:35:29.077Z,86.42
2022-10-29T23:37:55.955Z,86.48
2022-10-29T23:40:22.764Z,86.57
2022-10-29T23:42:49.420Z,86.49
2022-10-29T23:45:17.048Z,86.63
2022-10-29T23:47:43.668Z,86.88
2022-10-29T23:50:10.376Z,87.21
2022-10-29T23:52:36.931Z,86.85
2022-10-29T23:55:03.591Z,87.19
2022-10-29T23:57:36.240Z,86.91
